sensor_id;sensor_type;location;lat;lon;timestamp;P1;durP1;ratioP1;P2;durP2;ratioP2
6823;SDS011;58633;49.470;11.004;2023-02-23T00:01:15;14.13;;;9.70;;
6823;SDS011;58633;49.470;11.004;2023-02-23T00:03:46;13.77;;;10.20;;
6823;SDS011;58633;49.470;11.004;2023-02-23T00:06:13;18.35;;;12.70;;
6823;SDS011;58633;49.470;11.004;2023-02-23T00:08:40;23.27;;;16.95;;
6823;SDS011;58633;49.470;11.004;2023-02-23T00:11:07;19.25;;;14.13;;
6823;SDS011;58633;49.470;11.004;2023-02-23T00:13:38;14.15;;;10.65;;
6823;SDS011;58633;49.470;11.004;2023-02-23T00:16:08;13.65;;;9.50;;
6823;SDS011;58633;49.470;11.004;2023-02-23T00:18:41;13.13;;;9.57;;
6823;SDS011;58633;49.470;11.004;2023-02-23T00:23:55;14.15;;;9.57;;
6823;SDS011;58633;49.470;11.004;2023-02-23T00:26:23;14.05;;;10.60;;
6823;SDS011;58633;49.470;11.004;2023-02-23T00:28:53;17.42;;;12.05;;
6823;SDS011;58633;49.470;11.004;2023-02-23T00:31:20;14.95;;;11.05;;
6823;SDS011;58633;49.470;11.004;2023-02-23T00:33:49;13.88;;;9.82;;
6823;SDS011;58633;49.470;11.004;2023-02-23T00:36:18;16.23;;;9.63;;
6823;SDS011;58633;49.470;11.004;2023-02-23T00:38:44;17.27;;;10.10;;
6823;SDS011;58633;49.470;11.004;2023-02-23T00:41:11;15.07;;;11.27;;
6823;SDS011;58633;49.470;11.004;2023-02-23T00:43:44;13.30;;;9.88;;
6823;SDS011;58633;49.470;11.004;2023-02-23T00:46:12;14.52;;;9.73;;
6823;SDS011;58633;49.470;11.004;2023-02-23T00:48:40;15.80;;;10.60;;
6823;SDS011;58633;49.470;11.004;2023-02-23T00:51:06;16.08;;;10.05;;
6823;SDS011;58633;49.470;11.004;2023-02-23T00:53:32;16.48;;;10.10;;
6823;SDS011;58633;49.470;11.004;2023-02-23T00:55:58;12.45;;;9.65;;
6823;SDS011;58633;49.470;11.004;2023-02-23T00:58:24;16.27;;;10.38;;
6823;SDS011;58633;49.470;11.004;2023-02-23T01:00:50;17.02;;;10.88;;
6823;SDS011;58633;49.470;11.004;2023-02-23T01:03:17;16.45;;;11.00;;
6823;SDS011;58633;49.470;11.004;2023-02-23T01:05:43;16.25;;;11.15;;
6823;SDS011;58633;49.470;11.004;2023-02-23T01:08:09;14.90;;;11.13;;
6823;SDS011;58633;49.470;11.004;2023-02-23T01:10:39;17.13;;;10.93;;
6823;SDS011;58633;49.470;11.004;2023-02-23T01:13:07;17.67;;;11.18;;
6823;SDS011;58633;49.470;11.004;2023-02-23T01:15:33;15.65;;;10.60;;
6823;SDS011;58633;49.470;11.004;2023-02-23T01:18:04;16.25;;;10.77;;
6823;SDS011;58633;49.470;11.004;2023-02-23T01:20:32;18.55;;;12.05;;
6823;SDS011;58633;49.470;11.004;2023-02-23T01:23:00;17.20;;;11.05;;
6823;SDS011;58633;49.470;11.004;2023-02-23T01:25:26;18.13;;;11.23;;
6823;SDS011;58633;49.470;11.004;2023-02-23T01:27:53;16.60;;;11.52;;
6823;SDS011;58633;49.470;11.004;2023-02-23T01:30:19;16.40;;;11.75;;
6823;SDS011;58633;49.470;11.004;2023-02-23T01:32:45;18.85;;;12.32;;
6823;SDS011;58633;49.470;11.004;2023-02-23T01:35:11;20.80;;;11.95;;
6823;SDS011;58633;49.470;11.004;2023-02-23T01:37:38;17.48;;;11.10;;
6823;SDS011;58633;49.470;11.004;2023-02-23T01:40:06;18.63;;;12.98;;
6823;SDS011;58633;49.470;11.004;2023-02-23T01:45:42;15.80;;;10.57;;
6823;SDS011;58633;49.470;11.004;2023-02-23T01:48:12;16.77;;;11.45;;
6823;SDS011;58633;49.470;11.004;2023-02-23T01:50:42;15.80;;;11.32;;
6823;SDS011;58633;49.470;11.004;2023-02-23T01:53:12;17.15;;;11.32;;
6823;SDS011;58633;49.470;11.004;2023-02-23T01:55:39;20.85;;;11.80;;
6823;SDS011;58633;49.470;11.004;2023-02-23T01:58:09;17.73;;;10.93;;
6823;SDS011;58633;49.470;11.004;2023-02-23T02:00:40;17.88;;;11.25;;
6823;SDS011;58633;49.470;11.004;2023-02-23T02:03:22;20.35;;;11.63;;
6823;SDS011;58633;49.470;11.004;2023-02-23T02:05:55;18.48;;;12.07;;
6823;SDS011;58633;49.470;11.004;2023-02-23T02:08:23;19.33;;;10.98;;
6823;SDS011;58633;49.470;11.004;2023-02-23T02:10:50;20.80;;;12.27;;
6823;SDS011;58633;49.470;11.004;2023-02-23T02:13:20;17.35;;;12.07;;
6823;SDS011;58633;49.470;11.004;2023-02-23T02:16:36;19.77;;;11.93;;
6823;SDS011;58633;49.470;11.004;2023-02-23T02:19:17;18.88;;;11.93;;
6823;SDS011;58633;49.470;11.004;2023-02-23T02:27:50;17.45;;;11.25;;
6823;SDS011;58633;49.470;11.004;2023-02-23T02:33:39;20.80;;;12.40;;
6823;SDS011;58633;49.470;11.004;2023-02-23T02:39:20;19.88;;;11.82;;
6823;SDS011;58633;49.470;11.004;2023-02-23T02:42:07;20.85;;;12.93;;
6823;SDS011;58633;49.470;11.004;2023-02-23T02:47:40;17.95;;;12.00;;
6823;SDS011;58633;49.470;11.004;2023-02-23T02:50:16;19.02;;;13.13;;
6823;SDS011;58633;49.470;11.004;2023-02-23T02:53:09;21.65;;;13.20;;
6823;SDS011;58633;49.470;11.004;2023-02-23T02:55:39;21.17;;;12.57;;
6823;SDS011;58633;49.470;11.004;2023-02-23T02:58:08;20.38;;;13.38;;
6823;SDS011;58633;49.470;11.004;2023-02-23T03:03:28;21.07;;;13.77;;
6823;SDS011;58633;49.470;11.004;2023-02-23T03:06:35;21.33;;;13.27;;
6823;SDS011;58633;49.470;11.004;2023-02-23T03:12:36;23.77;;;14.03;;
6823;SDS011;58633;49.470;11.004;2023-02-23T03:18:49;21.67;;;13.47;;
6823;SDS011;58633;49.470;11.004;2023-02-23T03:21:45;19.87;;;13.40;;
6823;SDS011;58633;49.470;11.004;2023-02-23T03:24:48;20.75;;;13.00;;
6823;SDS011;58633;49.470;11.004;2023-02-23T03:27:53;21.37;;;13.63;;
6823;SDS011;58633;49.470;11.004;2023-02-23T03:31:09;23.53;;;13.27;;
6823;SDS011;58633;49.470;11.004;2023-02-23T03:34:15;21.63;;;13.13;;
6823;SDS011;58633;49.470;11.004;2023-02-23T03:37:09;20.90;;;12.63;;
6823;SDS011;58633;49.470;11.004;2023-02-23T03:40:02;21.10;;;12.00;;
6823;SDS011;58633;49.470;11.004;2023-02-23T03:42:52;21.07;;;11.97;;
6823;SDS011;58633;49.470;11.004;2023-02-23T03:45:39;22.60;;;12.70;;
6823;SDS011;58633;49.470;11.004;2023-02-23T03:48:25;19.20;;;11.53;;
6823;SDS011;58633;49.470;11.004;2023-02-23T03:51:10;18.97;;;11.93;;
6823;SDS011;58633;49.470;11.004;2023-02-23T03:54:02;19.50;;;11.13;;
6823;SDS011;58633;49.470;11.004;2023-02-23T03:56:54;21.67;;;11.90;;
6823;SDS011;58633;49.470;11.004;2023-02-23T03:59:44;17.87;;;11.90;;
6823;SDS011;58633;49.470;11.004;2023-02-23T04:02:32;23.83;;;13.95;;
6823;SDS011;58633;49.470;11.004;2023-02-23T04:05:18;17.47;;;11.60;;
6823;SDS011;58633;49.470;11.004;2023-02-23T04:08:06;22.13;;;12.60;;
6823;SDS011;58633;49.470;11.004;2023-02-23T04:10:57;24.53;;;13.07;;
6823;SDS011;58633;49.470;11.004;2023-02-23T04:13:51;20.70;;;12.77;;
6823;SDS011;58633;49.470;11.004;2023-02-23T04:16:21;21.10;;;13.63;;
6823;SDS011;58633;49.470;11.004;2023-02-23T04:18:47;21.07;;;13.53;;
6823;SDS011;58633;49.470;11.004;2023-02-23T04:21:13;21.23;;;12.87;;
6823;SDS011;58633;49.470;11.004;2023-02-23T04:23:38;23.47;;;13.53;;
6823;SDS011;58633;49.470;11.004;2023-02-23T04:26:05;22.63;;;13.77;;
6823;SDS011;58633;49.470;11.004;2023-02-23T04:28:30;20.27;;;13.60;;
6823;SDS011;58633;49.470;11.004;2023-02-23T04:30:56;23.70;;;13.80;;
6823;SDS011;58633;49.470;11.004;2023-02-23T04:33:22;23.40;;;14.43;;
6823;SDS011;58633;49.470;11.004;2023-02-23T04:35:50;22.67;;;13.23;;
6823;SDS011;58633;49.470;11.004;2023-02-23T04:38:19;21.30;;;14.33;;
6823;SDS011;58633;49.470;11.004;2023-02-23T04:40:45;21.90;;;13.33;;
6823;SDS011;58633;49.470;11.004;2023-02-23T04:43:11;23.30;;;14.07;;
6823;SDS011;58633;49.470;11.004;2023-02-23T04:45:37;21.67;;;13.00;;
6823;SDS011;58633;49.470;11.004;2023-02-23T04:48:03;21.40;;;13.00;;
6823;SDS011;58633;49.470;11.004;2023-02-23T04:50:29;24.20;;;14.83;;
6823;SDS011;58633;49.470;11.004;2023-02-23T04:52:54;23.70;;;14.07;;
6823;SDS011;58633;49.470;11.004;2023-02-23T04:55:22;20.60;;;13.70;;
6823;SDS011;58633;49.470;11.004;2023-02-23T04:57:49;22.43;;;13.03;;
6823;SDS011;58633;49.470;11.004;2023-02-23T05:00:16;24.13;;;12.90;;
6823;SDS011;58633;49.470;11.004;2023-02-23T05:02:42;24.37;;;14.07;;
6823;SDS011;58633;49.470;11.004;2023-02-23T05:05:08;20.57;;;13.10;;
6823;SDS011;58633;49.470;11.004;2023-02-23T05:07:34;23.17;;;13.37;;
6823;SDS011;58633;49.470;11.004;2023-02-23T05:10:00;21.73;;;13.30;;
6823;SDS011;58633;49.470;11.004;2023-02-23T05:12:26;20.20;;;13.00;;
6823;SDS011;58633;49.470;11.004;2023-02-23T05:14:52;23.70;;;13.50;;
6823;SDS011;58633;49.470;11.004;2023-02-23T05:17:18;20.37;;;13.30;;
6823;SDS011;58633;49.470;11.004;2023-02-23T05:19:44;22.00;;;13.77;;
6823;SDS011;58633;49.470;11.004;2023-02-23T05:22:10;24.83;;;13.13;;
6823;SDS011;58633;49.470;11.004;2023-02-23T05:24:37;23.23;;;13.63;;
6823;SDS011;58633;49.470;11.004;2023-02-23T05:27:06;19.53;;;12.47;;
6823;SDS011;58633;49.470;11.004;2023-02-23T05:29:32;25.20;;;14.00;;
6823;SDS011;58633;49.470;11.004;2023-02-23T05:31:58;21.77;;;13.93;;
6823;SDS011;58633;49.470;11.004;2023-02-23T05:34:24;23.70;;;13.10;;
6823;SDS011;58633;49.470;11.004;2023-02-23T05:36:50;20.60;;;13.60;;
6823;SDS011;58633;49.470;11.004;2023-02-23T05:39:15;21.20;;;13.40;;
6823;SDS011;58633;49.470;11.004;2023-02-23T05:41:41;25.77;;;13.80;;
6823;SDS011;58633;49.470;11.004;2023-02-23T05:44:06;24.30;;;13.63;;
6823;SDS011;58633;49.470;11.004;2023-02-23T05:46:32;24.70;;;13.93;;
6823;SDS011;58633;49.470;11.004;2023-02-23T05:48:58;25.30;;;14.07;;
6823;SDS011;58633;49.470;11.004;2023-02-23T05:51:25;23.00;;;14.03;;
6823;SDS011;58633;49.470;11.004;2023-02-23T05:53:53;22.57;;;13.80;;
6823;SDS011;58633;49.470;11.004;2023-02-23T05:56:18;21.87;;;14.13;;
6823;SDS011;58633;49.470;11.004;2023-02-23T05:58:48;22.37;;;13.90;;
6823;SDS011;58633;49.470;11.004;2023-02-23T06:01:15;25.93;;;15.07;;
6823;SDS011;58633;49.470;11.004;2023-02-23T06:03:41;25.20;;;14.53;;
6823;SDS011;58633;49.470;11.004;2023-02-23T06:06:08;27.43;;;14.53;;
6823;SDS011;58633;49.470;11.004;2023-02-23T06:08:34;25.17;;;14.57;;
6823;SDS011;58633;49.470;11.004;2023-02-23T06:11:00;26.73;;;15.30;;
6823;SDS011;58633;49.470;11.004;2023-02-23T06:13:26;30.23;;;15.40;;
6823;SDS011;58633;49.470;11.004;2023-02-23T06:15:52;26.77;;;15.07;;
6823;SDS011;58633;49.470;11.004;2023-02-23T06:18:18;26.73;;;14.90;;
6823;SDS011;58633;49.470;11.004;2023-02-23T06:20:44;21.07;;;13.53;;
6823;SDS011;58633;49.470;11.004;2023-02-23T06:23:10;27.33;;;14.70;;
6823;SDS011;58633;49.470;11.004;2023-02-23T06:25:36;24.30;;;14.07;;
6823;SDS011;58633;49.470;11.004;2023-02-23T06:28:01;29.13;;;15.37;;
6823;SDS011;58633;49.470;11.004;2023-02-23T06:30:27;28.63;;;14.73;;
6823;SDS011;58633;49.470;11.004;2023-02-23T06:32:53;27.80;;;15.63;;
6823;SDS011;58633;49.470;11.004;2023-02-23T06:35:19;25.07;;;15.13;;
6823;SDS011;58633;49.470;11.004;2023-02-23T06:37:45;29.13;;;16.00;;
6823;SDS011;58633;49.470;11.004;2023-02-23T06:40:11;26.43;;;15.90;;
6823;SDS011;58633;49.470;11.004;2023-02-23T06:42:38;28.53;;;15.40;;
6823;SDS011;58633;49.470;11.004;2023-02-23T06:45:04;29.57;;;16.63;;
6823;SDS011;58633;49.470;11.004;2023-02-23T06:47:30;27.53;;;15.47;;
6823;SDS011;58633;49.470;11.004;2023-02-23T06:49:55;28.10;;;16.40;;
6823;SDS011;58633;49.470;11.004;2023-02-23T06:52:21;29.90;;;15.87;;
6823;SDS011;58633;49.470;11.004;2023-02-23T06:54:48;28.47;;;15.83;;
6823;SDS011;58633;49.470;11.004;2023-02-23T06:57:15;25.90;;;15.80;;
6823;SDS011;58633;49.470;11.004;2023-02-23T06:59:40;30.33;;;16.63;;
6823;SDS011;58633;49.470;11.004;2023-02-23T07:02:06;28.87;;;16.83;;
6823;SDS011;58633;49.470;11.004;2023-02-23T07:04:35;27.13;;;15.87;;
6823;SDS011;58633;49.470;11.004;2023-02-23T07:07:01;31.43;;;17.10;;
6823;SDS011;58633;49.470;11.004;2023-02-23T07:09:26;30.40;;;17.07;;
6823;SDS011;58633;49.470;11.004;2023-02-23T07:11:52;25.17;;;16.30;;
6823;SDS011;58633;49.470;11.004;2023-02-23T07:14:17;27.77;;;16.50;;
6823;SDS011;58633;49.470;11.004;2023-02-23T07:16:43;28.13;;;16.10;;
6823;SDS011;58633;49.470;11.004;2023-02-23T07:19:08;28.87;;;16.40;;
6823;SDS011;58633;49.470;11.004;2023-02-23T07:21:34;29.67;;;16.87;;
6823;SDS011;58633;49.470;11.004;2023-02-23T07:24:00;28.43;;;16.53;;
6823;SDS011;58633;49.470;11.004;2023-02-23T07:26:30;34.30;;;17.77;;
6823;SDS011;58633;49.470;11.004;2023-02-23T07:28:57;32.77;;;17.90;;
6823;SDS011;58633;49.470;11.004;2023-02-23T07:31:23;30.20;;;16.97;;
6823;SDS011;58633;49.470;11.004;2023-02-23T07:33:50;32.43;;;18.13;;
6823;SDS011;58633;49.470;11.004;2023-02-23T07:36:16;28.00;;;16.73;;
6823;SDS011;58633;49.470;11.004;2023-02-23T07:38:42;28.87;;;17.23;;
6823;SDS011;58633;49.470;11.004;2023-02-23T07:41:08;30.37;;;17.27;;
6823;SDS011;58633;49.470;11.004;2023-02-23T07:43:34;31.37;;;18.37;;
6823;SDS011;58633;49.470;11.004;2023-02-23T07:46:00;37.67;;;17.67;;
6823;SDS011;58633;49.470;11.004;2023-02-23T07:48:26;29.40;;;17.30;;
6823;SDS011;58633;49.470;11.004;2023-02-23T07:50:52;27.97;;;17.67;;
6823;SDS011;58633;49.470;11.004;2023-02-23T07:53:18;31.47;;;18.67;;
6823;SDS011;58633;49.470;11.004;2023-02-23T07:55:44;31.70;;;17.83;;
6823;SDS011;58633;49.470;11.004;2023-02-23T07:58:09;31.50;;;17.43;;
6823;SDS011;58633;49.470;11.004;2023-02-23T08:00:37;35.87;;;18.13;;
6823;SDS011;58633;49.470;11.004;2023-02-23T08:03:04;34.83;;;19.10;;
6823;SDS011;58633;49.470;11.004;2023-02-23T08:05:29;34.03;;;19.07;;
6823;SDS011;58633;49.470;11.004;2023-02-23T08:07:56;34.47;;;19.00;;
6823;SDS011;58633;49.470;11.004;2023-02-23T08:10:22;30.80;;;18.60;;
6823;SDS011;58633;49.470;11.004;2023-02-23T08:12:48;37.97;;;19.53;;
6823;SDS011;58633;49.470;11.004;2023-02-23T08:15:14;33.10;;;19.73;;
6823;SDS011;58633;49.470;11.004;2023-02-23T08:17:40;33.33;;;19.43;;
6823;SDS011;58633;49.470;11.004;2023-02-23T08:20:07;39.10;;;20.07;;
6823;SDS011;58633;49.470;11.004;2023-02-23T08:22:34;34.83;;;19.40;;
6823;SDS011;58633;49.470;11.004;2023-02-23T08:24:59;41.07;;;20.73;;
6823;SDS011;58633;49.470;11.004;2023-02-23T08:27:32;39.05;;;20.42;;
6823;SDS011;58633;49.470;11.004;2023-02-23T08:29:58;37.05;;;19.73;;
6823;SDS011;58633;49.470;11.004;2023-02-23T08:32:27;34.70;;;21.05;;
6823;SDS011;58633;49.470;11.004;2023-02-23T08:34:54;34.50;;;20.73;;
6823;SDS011;58633;49.470;11.004;2023-02-23T08:37:21;33.60;;;20.20;;
6823;SDS011;58633;49.470;11.004;2023-02-23T08:39:48;35.77;;;20.60;;
6823;SDS011;58633;49.470;11.004;2023-02-23T08:42:15;45.73;;;21.53;;
6823;SDS011;58633;49.470;11.004;2023-02-23T08:44:42;43.77;;;22.67;;
6823;SDS011;58633;49.470;11.004;2023-02-23T08:47:07;41.58;;;21.98;;
6823;SDS011;58633;49.470;11.004;2023-02-23T08:49:33;42.10;;;22.67;;
6823;SDS011;58633;49.470;11.004;2023-02-23T08:51:58;36.23;;;21.93;;
6823;SDS011;58633;49.470;11.004;2023-02-23T08:54:24;38.75;;;21.60;;
6823;SDS011;58633;49.470;11.004;2023-02-23T08:56:51;36.78;;;21.15;;
6823;SDS011;58633;49.470;11.004;2023-02-23T08:59:21;36.78;;;21.55;;
6823;SDS011;58633;49.470;11.004;2023-02-23T09:01:47;38.35;;;21.90;;
6823;SDS011;58633;49.470;11.004;2023-02-23T09:04:12;37.40;;;21.50;;
6823;SDS011;58633;49.470;11.004;2023-02-23T09:06:38;38.70;;;22.17;;
6823;SDS011;58633;49.470;11.004;2023-02-23T09:09:05;37.65;;;21.95;;
6823;SDS011;58633;49.470;11.004;2023-02-23T09:11:31;34.85;;;21.30;;
6823;SDS011;58633;49.470;11.004;2023-02-23T09:13:56;34.30;;;20.75;;
6823;SDS011;58633;49.470;11.004;2023-02-23T09:16:23;36.28;;;20.20;;
6823;SDS011;58633;49.470;11.004;2023-02-23T09:18:49;42.83;;;21.85;;
6823;SDS011;58633;49.470;11.004;2023-02-23T09:21:16;35.25;;;22.88;;
6823;SDS011;58633;49.470;11.004;2023-02-23T09:23:45;39.75;;;22.13;;
6823;SDS011;58633;49.470;11.004;2023-02-23T09:26:12;36.67;;;21.23;;
6823;SDS011;58633;49.470;11.004;2023-02-23T09:28:37;39.97;;;21.48;;
6823;SDS011;58633;49.470;11.004;2023-02-23T09:31:06;39.35;;;22.35;;
6823;SDS011;58633;49.470;11.004;2023-02-23T09:33:33;39.20;;;22.45;;
6823;SDS011;58633;49.470;11.004;2023-02-23T09:35:59;39.00;;;22.33;;
6823;SDS011;58633;49.470;11.004;2023-02-23T09:38:27;44.70;;;23.38;;
6823;SDS011;58633;49.470;11.004;2023-02-23T09:40:54;39.25;;;22.75;;
6823;SDS011;58633;49.470;11.004;2023-02-23T09:43:31;42.03;;;21.77;;
6823;SDS011;58633;49.470;11.004;2023-02-23T09:48:52;41.08;;;22.90;;
6823;SDS011;58633;49.470;11.004;2023-02-23T09:51:20;41.22;;;22.67;;
6823;SDS011;58633;49.470;11.004;2023-02-23T09:53:55;39.83;;;22.10;;
6823;SDS011;58633;49.470;11.004;2023-02-23T09:56:45;43.53;;;22.95;;
6823;SDS011;58633;49.470;11.004;2023-02-23T09:59:11;42.28;;;23.70;;
6823;SDS011;58633;49.470;11.004;2023-02-23T10:04:30;41.03;;;23.55;;
6823;SDS011;58633;49.470;11.004;2023-02-23T10:07:04;40.97;;;23.55;;
6823;SDS011;58633;49.470;11.004;2023-02-23T10:10:23;43.42;;;23.92;;
6823;SDS011;58633;49.470;11.004;2023-02-23T10:12:58;44.15;;;23.30;;
6823;SDS011;58633;49.470;11.004;2023-02-23T10:21:02;40.65;;;23.08;;
6823;SDS011;58633;49.470;11.004;2023-02-23T10:23:57;43.88;;;23.40;;
6823;SDS011;58633;49.470;11.004;2023-02-23T10:26:48;38.88;;;22.38;;
6823;SDS011;58633;49.470;11.004;2023-02-23T10:32:37;41.42;;;22.60;;
6823;SDS011;58633;49.470;11.004;2023-02-23T10:35:17;41.20;;;22.48;;
6823;SDS011;58633;49.470;11.004;2023-02-23T10:37:54;39.75;;;22.83;;
6823;SDS011;58633;49.470;11.004;2023-02-23T10:40:27;35.30;;;21.90;;
6823;SDS011;58633;49.470;11.004;2023-02-23T10:42:56;41.47;;;22.20;;
6823;SDS011;58633;49.470;11.004;2023-02-23T10:45:25;40.75;;;23.33;;
6823;SDS011;58633;49.470;11.004;2023-02-23T10:47:57;34.67;;;20.55;;
6823;SDS011;58633;49.470;11.004;2023-02-23T10:50:23;36.28;;;20.90;;
6823;SDS011;58633;49.470;11.004;2023-02-23T10:52:53;34.40;;;20.15;;
6823;SDS011;58633;49.470;11.004;2023-02-23T10:55:26;34.78;;;20.30;;
6823;SDS011;58633;49.470;11.004;2023-02-23T10:58:01;40.92;;;20.65;;
6823;SDS011;58633;49.470;11.004;2023-02-23T11:00:30;33.88;;;18.92;;
6823;SDS011;58633;49.470;11.004;2023-02-23T11:02:58;26.90;;;16.80;;
6823;SDS011;58633;49.470;11.004;2023-02-23T11:05:35;27.63;;;16.38;;
6823;SDS011;58633;49.470;11.004;2023-02-23T11:10:53;32.15;;;18.77;;
6823;SDS011;58633;49.470;11.004;2023-02-23T11:13:28;33.03;;;18.02;;
6823;SDS011;58633;49.470;11.004;2023-02-23T11:18:39;27.67;;;16.55;;
6823;SDS011;58633;49.470;11.004;2023-02-23T11:21:16;28.00;;;16.80;;
6823;SDS011;58633;49.470;11.004;2023-02-23T11:23:47;28.98;;;17.23;;
6823;SDS011;58633;49.470;11.004;2023-02-23T11:26:19;29.27;;;17.00;;
6823;SDS011;58633;49.470;11.004;2023-02-23T11:28:54;26.60;;;15.15;;
6823;SDS011;58633;49.470;11.004;2023-02-23T11:31:29;24.48;;;14.60;;
6823;SDS011;58633;49.470;11.004;2023-02-23T11:33:58;27.73;;;14.90;;
6823;SDS011;58633;49.470;11.004;2023-02-23T11:36:27;22.25;;;13.93;;
6823;SDS011;58633;49.470;11.004;2023-02-23T11:39:05;24.70;;;14.30;;
6823;SDS011;58633;49.470;11.004;2023-02-23T11:41:47;28.20;;;15.27;;
6823;SDS011;58633;49.470;11.004;2023-02-23T11:44:36;25.42;;;14.68;;
6823;SDS011;58633;49.470;11.004;2023-02-23T11:47:02;23.88;;;14.27;;
6823;SDS011;58633;49.470;11.004;2023-02-23T11:49:30;23.10;;;13.55;;
6823;SDS011;58633;49.470;11.004;2023-02-23T11:51:59;21.80;;;13.25;;
6823;SDS011;58633;49.470;11.004;2023-02-23T11:54:28;23.45;;;13.35;;
6823;SDS011;58633;49.470;11.004;2023-02-23T11:56:58;21.42;;;12.90;;
6823;SDS011;58633;49.470;11.004;2023-02-23T11:59:33;20.65;;;12.93;;
6823;SDS011;58633;49.470;11.004;2023-02-23T12:04:43;19.88;;;12.13;;
6823;SDS011;58633;49.470;11.004;2023-02-23T12:10:01;22.33;;;11.98;;
6823;SDS011;58633;49.470;11.004;2023-02-23T12:12:39;18.15;;;11.60;;
6823;SDS011;58633;49.470;11.004;2023-02-23T12:15:54;19.92;;;12.73;;
6823;SDS011;58633;49.470;11.004;2023-02-23T12:18:16;16.90;;;11.43;;
6823;SDS011;58633;49.470;11.004;2023-02-23T12:20:50;18.30;;;11.85;;
6823;SDS011;58633;49.470;11.004;2023-02-23T12:23:24;19.52;;;11.90;;
6823;SDS011;58633;49.470;11.004;2023-02-23T12:25:58;17.85;;;11.65;;
6823;SDS011;58633;49.470;11.004;2023-02-23T12:28:32;18.17;;;11.60;;
6823;SDS011;58633;49.470;11.004;2023-02-23T12:31:05;16.13;;;10.75;;
6823;SDS011;58633;49.470;11.004;2023-02-23T12:33:49;16.25;;;11.18;;
6823;SDS011;58633;49.470;11.004;2023-02-23T12:42:00;21.25;;;11.60;;
6823;SDS011;58633;49.470;11.004;2023-02-23T12:47:52;16.70;;;10.60;;
6823;SDS011;58633;49.470;11.004;2023-02-23T12:50:23;16.02;;;10.80;;
6823;SDS011;58633;49.470;11.004;2023-02-23T12:56:01;18.45;;;11.30;;
6823;SDS011;58633;49.470;11.004;2023-02-23T13:05:08;14.70;;;10.15;;
6823;SDS011;58633;49.470;11.004;2023-02-23T13:18:48;13.75;;;10.05;;
6823;SDS011;58633;49.470;11.004;2023-02-23T13:21:40;14.90;;;9.57;;
6823;SDS011;58633;49.470;11.004;2023-02-23T13:24:16;15.75;;;10.25;;
6823;SDS011;58633;49.470;11.004;2023-02-23T13:26:46;15.93;;;10.05;;
6823;SDS011;58633;49.470;11.004;2023-02-23T13:29:41;16.30;;;10.77;;
6823;SDS011;58633;49.470;11.004;2023-02-23T13:32:09;16.70;;;10.48;;
6823;SDS011;58633;49.470;11.004;2023-02-23T13:34:41;13.32;;;9.40;;
6823;SDS011;58633;49.470;11.004;2023-02-23T13:37:21;13.63;;;9.40;;
6823;SDS011;58633;49.470;11.004;2023-02-23T13:40:01;14.30;;;9.10;;
6823;SDS011;58633;49.470;11.004;2023-02-23T13:42:40;14.27;;;9.18;;
6823;SDS011;58633;49.470;11.004;2023-02-23T13:50:39;10.85;;;7.68;;
6823;SDS011;58633;49.470;11.004;2023-02-23T13:56:17;11.02;;;7.30;;
6823;SDS011;58633;49.470;11.004;2023-02-23T14:01:29;15.20;;;9.23;;
6823;SDS011;58633;49.470;11.004;2023-02-23T14:03:57;15.82;;;10.02;;
6823;SDS011;58633;49.470;11.004;2023-02-23T14:06:26;17.15;;;10.60;;
6823;SDS011;58633;49.470;11.004;2023-02-23T14:08:54;17.67;;;10.30;;
6823;SDS011;58633;49.470;11.004;2023-02-23T14:14:02;14.77;;;9.18;;
6823;SDS011;58633;49.470;11.004;2023-02-23T14:16:29;14.43;;;8.68;;
6823;SDS011;58633;49.470;11.004;2023-02-23T14:21:49;15.52;;;8.65;;
6823;SDS011;58633;49.470;11.004;2023-02-23T14:24:23;12.43;;;8.50;;
6823;SDS011;58633;49.470;11.004;2023-02-23T14:29:30;12.40;;;8.25;;
6823;SDS011;58633;49.470;11.004;2023-02-23T14:34:47;13.18;;;8.40;;
6823;SDS011;58633;49.470;11.004;2023-02-23T14:37:24;12.70;;;8.25;;
6823;SDS011;58633;49.470;11.004;2023-02-23T14:39:52;15.13;;;9.18;;
6823;SDS011;58633;49.470;11.004;2023-02-23T14:42:22;13.90;;;9.80;;
6823;SDS011;58633;49.470;11.004;2023-02-23T14:44:51;15.25;;;9.50;;
6823;SDS011;58633;49.470;11.004;2023-02-23T14:47:19;11.32;;;8.02;;
6823;SDS011;58633;49.470;11.004;2023-02-23T14:52:25;14.13;;;9.45;;
6823;SDS011;58633;49.470;11.004;2023-02-23T14:57:56;11.93;;;8.40;;
6823;SDS011;58633;49.470;11.004;2023-02-23T15:00:26;13.75;;;9.25;;
6823;SDS011;58633;49.470;11.004;2023-02-23T15:02:58;12.98;;;8.48;;
6823;SDS011;58633;49.470;11.004;2023-02-23T15:05:32;13.52;;;8.27;;
6823;SDS011;58633;49.470;11.004;2023-02-23T15:08:19;12.23;;;8.05;;
6823;SDS011;58633;49.470;11.004;2023-02-23T15:10:48;11.65;;;8.23;;
6823;SDS011;58633;49.470;11.004;2023-02-23T15:13:28;14.75;;;9.00;;
6823;SDS011;58633;49.470;11.004;2023-02-23T15:16:00;11.05;;;8.48;;
6823;SDS011;58633;49.470;11.004;2023-02-23T15:21:51;13.80;;;9.10;;
6823;SDS011;58633;49.470;11.004;2023-02-23T15:24:41;15.65;;;9.50;;
6823;SDS011;58633;49.470;11.004;2023-02-23T15:27:17;14.05;;;9.65;;
6823;SDS011;58633;49.470;11.004;2023-02-23T15:29:47;17.13;;;10.38;;
6823;SDS011;58633;49.470;11.004;2023-02-23T15:34:44;22.83;;;13.02;;
6823;SDS011;58633;49.470;11.004;2023-02-23T15:37:12;15.32;;;10.20;;
6823;SDS011;58633;49.470;11.004;2023-02-23T15:40:02;15.60;;;9.50;;
6823;SDS011;58633;49.470;11.004;2023-02-23T15:42:43;17.15;;;10.27;;
6823;SDS011;58633;49.470;11.004;2023-02-23T15:45:15;15.13;;;9.70;;
6823;SDS011;58633;49.470;11.004;2023-02-23T15:47:52;16.92;;;11.20;;
6823;SDS011;58633;49.470;11.004;2023-02-23T15:50:23;14.10;;;9.88;;
6823;SDS011;58633;49.470;11.004;2023-02-23T15:52:56;14.68;;;10.00;;
6823;SDS011;58633;49.470;11.004;2023-02-23T15:55:27;16.08;;;9.98;;
6823;SDS011;58633;49.470;11.004;2023-02-23T15:57:59;16.70;;;11.00;;
6823;SDS011;58633;49.470;11.004;2023-02-23T16:00:38;14.73;;;10.23;;
6823;SDS011;58633;49.470;11.004;2023-02-23T16:03:06;16.42;;;11.07;;
6823;SDS011;58633;49.470;11.004;2023-02-23T16:05:53;20.35;;;10.32;;
6823;SDS011;58633;49.470;11.004;2023-02-23T16:08:30;15.50;;;10.00;;
6823;SDS011;58633;49.470;11.004;2023-02-23T16:11:01;15.93;;;10.27;;
6823;SDS011;58633;49.470;11.004;2023-02-23T16:13:40;14.02;;;9.68;;
6823;SDS011;58633;49.470;11.004;2023-02-23T16:16:09;16.38;;;10.40;;
6823;SDS011;58633;49.470;11.004;2023-02-23T16:18:43;18.60;;;10.65;;
6823;SDS011;58633;49.470;11.004;2023-02-23T16:21:15;14.23;;;9.20;;
6823;SDS011;58633;49.470;11.004;2023-02-23T16:23:46;18.02;;;9.70;;
6823;SDS011;58633;49.470;11.004;2023-02-23T16:26:18;14.65;;;9.18;;
6823;SDS011;58633;49.470;11.004;2023-02-23T16:28:50;15.20;;;9.35;;
6823;SDS011;58633;49.470;11.004;2023-02-23T16:31:24;14.65;;;8.73;;
6823;SDS011;58633;49.470;11.004;2023-02-23T16:34:23;17.40;;;9.18;;
6823;SDS011;58633;49.470;11.004;2023-02-23T16:36:55;13.82;;;8.65;;
6823;SDS011;58633;49.470;11.004;2023-02-23T16:39:23;16.45;;;8.95;;
6823;SDS011;58633;49.470;11.004;2023-02-23T16:41:53;15.10;;;8.98;;
6823;SDS011;58633;49.470;11.004;2023-02-23T16:44:22;16.63;;;10.10;;
6823;SDS011;58633;49.470;11.004;2023-02-23T16:49:19;13.98;;;8.30;;
6823;SDS011;58633;49.470;11.004;2023-02-23T16:51:47;15.73;;;9.27;;